createdAt,value
2024-01-24T00:00:57.206Z,7.81
2024-01-24T00:03:24.048Z,7.76
2024-01-24T00:05:52.066Z,7.83
2024-01-24T00:08:18.672Z,7.84
2024-01-24T00:10:45.594Z,7.87
2024-01-24T00:13:12.117Z,7.89
2024-01-24T00:15:39.310Z,8.03
2024-01-24T00:18:05.877Z,8.00
2024-01-24T00:20:32.406Z,8.03
2024-01-24T00:22:59.023Z,8.01
2024-01-24T00:25:25.487Z,8.06
2024-01-24T00:27:52.124Z,8.16
2024-01-24T00:30:18.708Z,8.25
2024-01-24T00:32:45.485Z,8.17
2024-01-24T00:35:12.130Z,8.34
2024-01-24T00:37:38.642Z,8.32
2024-01-24T00:40:05.733Z,8.30
2024-01-24T00:42:32.257Z,8.30
2024-01-24T00:44:59.100Z,8.25
2024-01-24T00:47:25.778Z,8.24
2024-01-24T00:49:52.287Z,8.37
2024-01-24T00:52:18.918Z,8.45
2024-01-24T00:54:45.481Z,8.48
2024-01-24T00:57:12.833Z,8.42
2024-01-24T00:59:39.556Z,8.43
2024-01-24T01:02:06.150Z,8.40
2024-01-24T01:04:32.794Z,8.61
2024-01-24T01:06:59.405Z,8.54
2024-01-24T01:09:25.940Z,8.51
2024-01-24T01:11:52.534Z,8.56
2024-01-24T01:14:19.135Z,8.49
2024-01-24T01:16:46.089Z,8.51
2024-01-24T01:19:12.581Z,8.51
2024-01-24T01:21:41.392Z,8.57
2024-01-24T01:24:09.691Z,8.44
2024-01-24T01:26:36.303Z,8.53
2024-01-24T01:29:03.277Z,8.50
2024-01-24T01:31:29.749Z,8.60
2024-01-24T01:33:57.014Z,8.72
2024-01-24T01:36:24.078Z,8.74
2024-01-24T01:38:51.424Z,8.74
2024-01-24T01:41:18.616Z,8.83
2024-01-24T01:43:45.927Z,9.00
2024-01-24T01:46:19.444Z,9.02
2024-01-24T01:48:46.474Z,9.20
2024-01-24T01:51:13.932Z,9.15
2024-01-24T01:53:40.756Z,9.19
2024-01-24T01:56:10.159Z,9.26
2024-01-24T01:58:38.367Z,9.14
2024-01-24T02:01:07.212Z,9.42
2024-01-24T02:03:34.238Z,9.32
2024-01-24T02:06:01.775Z,9.36
2024-01-24T02:08:28.737Z,9.31
2024-01-24T02:10:57.035Z,9.39
2024-01-24T02:13:23.573Z,9.49
2024-01-24T02:15:50.431Z,9.57
2024-01-24T02:18:17.097Z,9.57
2024-01-24T02:20:44.770Z,9.63
2024-01-24T02:23:13.378Z,9.70
2024-01-24T02:25:39.929Z,9.70
2024-01-24T02:28:06.704Z,9.80
2024-01-24T02:30:33.358Z,9.78
2024-01-24T02:33:01.734Z,9.84
2024-01-24T02:35:31.833Z,9.78
2024-01-24T02:37:58.737Z,9.81
2024-01-24T02:40:25.400Z,9.75
2024-01-24T02:42:52.397Z,9.76
2024-01-24T02:45:19.291Z,9.84
2024-01-24T02:47:46.619Z,9.87
2024-01-24T02:50:15.018Z,9.79
2024-01-24T02:52:41.992Z,9.99
2024-01-24T02:55:08.863Z,10.00
2024-01-24T02:57:35.709Z,10.06
2024-01-24T03:00:02.216Z,10.00
2024-01-24T03:02:28.764Z,10.17
2024-01-24T03:04:55.370Z,10.14
2024-01-24T03:07:21.919Z,10.12
2024-01-24T03:09:48.737Z,10.09
2024-01-24T03:12:15.304Z,10.06
2024-01-24T03:14:41.782Z,10.11
2024-01-24T03:17:09.285Z,10.12
2024-01-24T03:19:36.186Z,10.20
2024-01-24T03:22:02.948Z,10.14
2024-01-24T03:24:29.493Z,10.30
2024-01-24T03:26:55.992Z,10.26
2024-01-24T03:29:22.748Z,10.12
2024-01-24T03:31:49.212Z,10.02
2024-01-24T03:34:17.073Z,9.96
2024-01-24T03:36:43.656Z,9.90
2024-01-24T03:39:10.773Z,9.90
2024-01-24T03:41:40.721Z,9.95
2024-01-24T03:44:07.556Z,9.92
2024-01-24T03:46:34.185Z,9.95
2024-01-24T03:49:00.726Z,9.92
2024-01-24T03:51:29.418Z,9.98
2024-01-24T03:53:55.934Z,10.02
2024-01-24T03:56:22.509Z,10.11
2024-01-24T03:58:48.993Z,10.10
2024-01-24T04:01:17.158Z,10.19
2024-01-24T04:03:43.746Z,10.26
2024-01-24T04:06:10.330Z,10.21
2024-01-24T04:08:36.920Z,10.25
2024-01-24T04:11:03.517Z,10.18
2024-01-24T04:13:30.174Z,10.27
2024-01-24T04:15:56.675Z,10.28
2024-01-24T04:18:23.409Z,10.28
2024-01-24T04:20:49.976Z,10.25
2024-01-24T04:23:16.581Z,10.39
2024-01-24T04:25:43.041Z,10.38
2024-01-24T04:28:10.350Z,10.54
2024-01-24T04:30:37.031Z,10.48
2024-01-24T04:33:03.953Z,10.52
2024-01-24T04:35:30.700Z,10.56
2024-01-24T04:37:57.249Z,10.54
2024-01-24T04:40:23.839Z,10.60
2024-01-24T04:42:50.326Z,10.54
2024-01-24T04:45:17.353Z,10.59
2024-01-24T04:47:44.399Z,10.64
2024-01-24T04:50:12.369Z,10.64
2024-01-24T04:52:39.511Z,10.53
2024-01-24T04:55:12.173Z,10.50
2024-01-24T04:57:40.115Z,10.50
2024-01-24T05:00:10.767Z,10.50
2024-01-24T05:02:37.656Z,10.38
2024-01-24T05:05:07.753Z,10.50
2024-01-24T05:07:35.629Z,10.64
2024-01-24T05:10:04.633Z,10.66
2024-01-24T05:12:31.986Z,10.58
2024-01-24T05:14:58.824Z,10.71
2024-01-24T05:17:25.354Z,10.73
2024-01-24T05:19:52.037Z,10.78
2024-01-24T05:22:18.783Z,10.79
2024-01-24T05:24:46.548Z,10.77
2024-01-24T05:27:14.089Z,10.88
2024-01-24T05:29:40.857Z,10.74
2024-01-24T05:32:07.645Z,10.86
2024-01-24T05:34:34.315Z,10.84
2024-01-24T05:37:01.132Z,10.83
2024-01-24T05:39:27.780Z,10.85
2024-01-24T05:41:54.452Z,10.91
2024-01-24T05:44:21.307Z,10.83
2024-01-24T05:46:47.918Z,10.82
2024-01-24T05:49:14.529Z,10.87
2024-01-24T05:51:42.098Z,10.97
2024-01-24T05:54:08.610Z,11.05
2024-01-24T05:56:36.418Z,10.99
2024-01-24T05:59:03.093Z,11.06
2024-01-24T06:01:29.896Z,10.98
2024-01-24T06:03:56.734Z,11.00
2024-01-24T06:06:23.367Z,11.07
2024-01-24T06:08:50.097Z,11.04
2024-01-24T06:11:18.251Z,10.98
2024-01-24T06:13:44.987Z,10.92
2024-01-24T06:16:11.651Z,11.11
2024-01-24T06:18:38.311Z,11.05
2024-01-24T06:21:05.082Z,11.06
2024-01-24T06:23:31.645Z,11.01
2024-01-24T06:25:58.244Z,11.01
2024-01-24T06:28:24.679Z,11.08
2024-01-24T06:30:52.841Z,11.17
2024-01-24T06:33:19.597Z,11.09
2024-01-24T06:35:46.130Z,11.49
2024-01-24T06:38:13.630Z,11.67
2024-01-24T06:40:40.335Z,12.18
2024-01-24T06:43:07.180Z,12.26
2024-01-24T06:45:35.037Z,12.22
2024-01-24T06:48:02.663Z,12.10
2024-01-24T06:50:30.848Z,12.04
2024-01-24T06:52:59.371Z,11.98
2024-01-24T06:55:26.115Z,11.99
2024-01-24T06:57:52.717Z,12.10
2024-01-24T07:00:20.205Z,12.25
2024-01-24T07:02:46.849Z,12.22
2024-01-24T07:05:14.145Z,12.21
2024-01-24T07:07:40.634Z,12.15
2024-01-24T07:10:12.730Z,12.05
2024-01-24T07:12:46.025Z,11.66
2024-01-24T07:15:13.552Z,11.33
2024-01-24T07:17:40.847Z,11.08
2024-01-24T07:20:08.310Z,10.86
2024-01-24T07:22:35.005Z,10.85
2024-01-24T07:25:02.731Z,10.97
2024-01-24T07:27:31.750Z,11.22
2024-01-24T07:29:59.113Z,11.18
2024-01-24T07:32:25.970Z,11.25
2024-01-24T07:34:52.562Z,11.27
2024-01-24T07:37:19.284Z,11.35
2024-01-24T07:39:45.773Z,11.65
2024-01-24T07:42:12.250Z,11.71
2024-01-24T07:44:38.889Z,11.78
2024-01-24T07:47:05.790Z,11.86
2024-01-24T07:49:37.576Z,11.91
2024-01-24T07:52:05.857Z,11.81
2024-01-24T07:54:32.737Z,11.55
2024-01-24T07:56:59.388Z,11.26
2024-01-24T07:59:26.033Z,11.42
2024-01-24T08:01:52.754Z,11.18
2024-01-24T08:04:19.694Z,10.80
2024-01-24T08:06:49.155Z,10.62
2024-01-24T08:09:18.928Z,10.42
2024-01-24T08:11:48.286Z,10.20
2024-01-24T08:14:15.881Z,10.16
2024-01-24T08:17:02.836Z,10.03
2024-01-24T08:19:29.607Z,9.96
2024-01-24T08:21:56.810Z,9.91
2024-01-24T08:24:23.485Z,9.93
2024-01-24T08:26:51.303Z,9.93
2024-01-24T08:29:25.862Z,10.03
2024-01-24T08:31:58.631Z,10.04
2024-01-24T08:34:25.496Z,9.95
2024-01-24T08:36:52.057Z,10.05
2024-01-24T08:39:18.833Z,10.14
2024-01-24T08:41:45.347Z,10.10
2024-01-24T08:44:11.919Z,10.44
2024-01-24T08:46:38.568Z,10.41
2024-01-24T08:49:05.168Z,10.44
2024-01-24T08:51:33.120Z,10.46
2024-01-24T08:54:00.751Z,10.55
2024-01-24T08:56:27.519Z,10.70
2024-01-24T08:58:54.002Z,10.73
2024-01-24T09:01:21.648Z,11.02
2024-01-24T09:03:49.753Z,11.09
2024-01-24T09:06:17.019Z,11.08
2024-01-24T09:08:46.613Z,10.57
2024-01-24T09:11:14.045Z,10.44
2024-01-24T09:13:40.790Z,10.15
2024-01-24T09:16:07.873Z,10.19
2024-01-24T09:18:35.042Z,9.98
2024-01-24T09:21:02.642Z,9.75
2024-01-24T09:23:29.684Z,9.66
2024-01-24T09:25:56.424Z,9.44
2024-01-24T09:28:23.380Z,9.38
2024-01-24T09:30:50.632Z,9.34
2024-01-24T09:33:18.107Z,9.48
2024-01-24T09:35:48.066Z,9.52
2024-01-24T09:38:14.997Z,9.40
2024-01-24T09:40:42.072Z,9.49
2024-01-24T09:43:10.507Z,9.57
2024-01-24T09:45:43.569Z,9.74
2024-01-24T09:48:12.682Z,10.06
2024-01-24T09:50:40.758Z,10.14
2024-01-24T09:53:09.879Z,10.35
2024-01-24T09:55:36.702Z,10.46
2024-01-24T09:58:03.532Z,10.53
2024-01-24T10:00:30.138Z,10.64
2024-01-24T10:02:57.142Z,10.97
2024-01-24T10:05:26.635Z,11.08
2024-01-24T10:07:54.986Z,11.13
2024-01-24T10:10:21.798Z,11.21
2024-01-24T10:12:48.553Z,11.30
2024-01-24T10:15:15.358Z,11.38
2024-01-24T10:17:43.631Z,11.59
2024-01-24T10:20:13.261Z,11.60
2024-01-24T10:22:40.893Z,11.70
2024-01-24T10:25:11.112Z,11.80
2024-01-24T10:27:41.254Z,11.94
2024-01-24T10:30:13.549Z,12.11
2024-01-24T10:32:43.670Z,12.13
2024-01-24T10:35:10.854Z,12.09
2024-01-24T10:37:38.042Z,11.92
2024-01-24T10:40:07.088Z,12.02
2024-01-24T10:42:40.574Z,11.93
2024-01-24T10:45:08.028Z,11.83
2024-01-24T10:47:37.724Z,11.88
2024-01-24T10:50:07.473Z,11.81
2024-01-24T10:52:34.615Z,11.83
2024-01-24T10:55:07.330Z,11.78
2024-01-24T10:57:35.994Z,11.63
2024-01-24T11:00:07.593Z,11.61
2024-01-24T11:02:34.406Z,11.63
2024-01-24T11:05:05.653Z,11.64
2024-01-24T11:07:41.767Z,11.69
2024-01-24T11:10:14.516Z,11.66
2024-01-24T11:12:41.286Z,11.65
2024-01-24T11:15:09.495Z,11.58
2024-01-24T11:17:37.041Z,11.62
2024-01-24T11:20:08.293Z,11.55
2024-01-24T11:22:35.372Z,11.54
2024-01-24T11:25:02.404Z,11.48
2024-01-24T11:27:38.969Z,11.50
2024-01-24T11:30:07.257Z,11.54
2024-01-24T11:32:59.747Z,11.41
2024-01-24T11:35:54.995Z,11.40
2024-01-24T11:38:26.625Z,11.46
2024-01-24T11:41:11.962Z,11.47
2024-01-24T11:43:40.294Z,11.31
2024-01-24T11:46:09.849Z,11.31
2024-01-24T11:48:39.896Z,11.29
2024-01-24T11:51:11.103Z,11.24
2024-01-24T11:53:38.124Z,11.31
2024-01-24T11:56:06.847Z,11.39
2024-01-24T11:58:34.420Z,11.34
2024-01-24T12:01:03.302Z,11.43
2024-01-24T12:03:31.060Z,11.42
2024-01-24T12:05:58.907Z,11.37
2024-01-24T12:08:25.738Z,11.48
2024-01-24T12:10:52.701Z,11.47
2024-01-24T12:13:22.262Z,11.48
2024-01-24T12:15:49.325Z,11.49
2024-01-24T12:18:19.340Z,11.32
2024-01-24T12:20:49.927Z,11.39
2024-01-24T12:23:17.681Z,11.44
2024-01-24T12:25:45.175Z,11.47
2024-01-24T12:28:13.157Z,11.37
2024-01-24T12:30:48.609Z,11.31
2024-01-24T12:33:17.394Z,11.34
2024-01-24T12:35:51.398Z,11.37
2024-01-24T12:38:18.975Z,11.29
2024-01-24T12:40:54.911Z,11.35
2024-01-24T12:43:24.067Z,11.42
2024-01-24T12:45:52.608Z,11.57
2024-01-24T12:48:22.832Z,11.59
2024-01-24T12:50:50.669Z,11.57
2024-01-24T12:53:17.715Z,11.67
2024-01-24T12:55:44.584Z,11.54
2024-01-24T12:58:11.266Z,11.52
2024-01-24T13:00:38.321Z,11.47
2024-01-24T13:03:06.490Z,11.23
2024-01-24T13:05:42.089Z,11.05
2024-01-24T13:08:13.705Z,11.10
2024-01-24T13:10:44.336Z,11.18
2024-01-24T13:13:12.154Z,11.32
2024-01-24T13:15:40.313Z,11.40
2024-01-24T13:18:08.781Z,11.24
2024-01-24T13:20:35.704Z,11.39
2024-01-24T13:23:02.896Z,11.43
2024-01-24T13:25:29.591Z,11.47
2024-01-24T13:27:56.774Z,11.42
2024-01-24T13:30:23.421Z,11.53
2024-01-24T13:32:50.415Z,11.51
2024-01-24T13:35:17.288Z,11.55
2024-01-24T13:37:44.957Z,11.44
2024-01-24T13:40:12.765Z,11.23
2024-01-24T13:42:40.616Z,11.27
2024-01-24T13:45:07.713Z,11.30
2024-01-24T13:47:34.380Z,11.28
2024-01-24T13:50:01.202Z,11.34
2024-01-24T13:52:27.997Z,11.16
2024-01-24T13:54:54.799Z,11.18
2024-01-24T13:57:21.539Z,11.27
2024-01-24T13:59:48.080Z,11.20
2024-01-24T14:02:14.788Z,11.20
2024-01-24T14:04:41.603Z,11.19
2024-01-24T14:07:08.670Z,11.21
2024-01-24T14:09:37.299Z,11.21
2024-01-24T14:12:04.517Z,11.17
2024-01-24T14:14:32.533Z,11.13
2024-01-24T14:16:59.574Z,11.14
2024-01-24T14:19:26.873Z,11.13
2024-01-24T14:21:54.041Z,11.07
2024-01-24T14:24:21.643Z,11.10
2024-01-24T14:26:49.773Z,11.02
2024-01-24T14:29:16.806Z,11.08
2024-01-24T14:31:43.499Z,11.04
2024-01-24T14:34:10.529Z,11.05
2024-01-24T14:36:38.111Z,11.07
2024-01-24T14:39:05.616Z,10.92
2024-01-24T14:41:32.735Z,10.97
2024-01-24T14:43:59.245Z,10.84
2024-01-24T14:46:26.272Z,10.92
2024-01-24T14:48:53.038Z,10.87
2024-01-24T14:51:21.053Z,10.82
2024-01-24T14:53:47.697Z,10.88
2024-01-24T14:56:14.435Z,10.86
2024-01-24T14:58:41.904Z,10.84
2024-01-24T15:01:08.992Z,10.86
2024-01-24T15:03:35.696Z,10.84
2024-01-24T15:06:02.191Z,10.75
2024-01-24T15:08:28.804Z,10.67
2024-01-24T15:10:55.629Z,10.73
2024-01-24T15:13:22.364Z,10.75
2024-01-24T15:15:50.964Z,10.66
2024-01-24T15:18:17.928Z,10.70
2024-01-24T15:20:53.834Z,10.71
2024-01-24T15:23:29.755Z,10.61
2024-01-24T15:25:57.169Z,10.59
2024-01-24T15:28:23.859Z,10.66
2024-01-24T15:30:50.914Z,10.53
2024-01-24T15:33:19.420Z,10.61
2024-01-24T15:35:46.827Z,10.59
2024-01-24T15:38:13.852Z,10.49
2024-01-24T15:40:40.629Z,10.54
2024-01-24T15:43:10.038Z,10.42
2024-01-24T15:45:37.249Z,10.52
2024-01-24T15:48:04.502Z,10.58
2024-01-24T15:50:31.394Z,10.53
2024-01-24T15:52:58.038Z,10.59
2024-01-24T15:55:24.844Z,10.42
2024-01-24T15:57:51.913Z,10.50
2024-01-24T16:00:21.210Z,10.52
2024-01-24T16:02:48.240Z,10.53
2024-01-24T16:05:14.791Z,10.54
2024-01-24T16:07:41.610Z,10.45
2024-01-24T16:10:08.491Z,10.50
2024-01-24T16:12:35.278Z,10.39
2024-01-24T16:15:02.359Z,10.37
2024-01-24T16:17:28.998Z,10.28
2024-01-24T16:19:55.938Z,10.32
2024-01-24T16:22:32.533Z,10.35
2024-01-24T16:25:02.818Z,10.29
2024-01-24T16:27:29.595Z,10.32
2024-01-24T16:29:57.160Z,10.34
2024-01-24T16:32:23.775Z,10.20
2024-01-24T16:34:50.422Z,10.28
2024-01-24T16:37:17.430Z,10.30
2024-01-24T16:39:44.300Z,10.22
2024-01-24T16:42:10.785Z,10.27
2024-01-24T16:44:37.536Z,10.24
2024-01-24T16:47:04.139Z,10.13
2024-01-24T16:49:32.053Z,10.32
2024-01-24T16:51:58.758Z,10.17
2024-01-24T16:54:25.249Z,10.10
2024-01-24T16:56:51.874Z,10.32
2024-01-24T16:59:18.405Z,10.19
2024-01-24T17:01:45.572Z,10.05
2024-01-24T17:04:12.172Z,10.29
2024-01-24T17:06:40.201Z,10.27
2024-01-24T17:09:07.519Z,10.16
2024-01-24T17:11:34.100Z,10.20
2024-01-24T17:14:00.593Z,10.14
2024-01-24T17:16:27.110Z,10.22
2024-01-24T17:18:53.727Z,10.14
2024-01-24T17:21:20.221Z,10.21
2024-01-24T17:23:46.919Z,10.22
2024-01-24T17:26:13.682Z,10.18
2024-01-24T17:28:40.348Z,10.17
2024-01-24T17:31:06.932Z,10.13
2024-01-24T17:33:33.748Z,10.15
2024-01-24T17:36:00.274Z,9.94
2024-01-24T17:38:28.810Z,10.02
2024-01-24T17:40:55.745Z,10.05
2024-01-24T17:43:22.488Z,10.14
2024-01-24T17:45:49.046Z,10.10
2024-01-24T17:48:17.107Z,10.03
2024-01-24T17:50:43.683Z,10.04
2024-01-24T17:53:12.959Z,10.01
2024-01-24T17:55:39.509Z,10.06
2024-01-24T17:58:06.269Z,9.98
2024-01-24T18:00:34.071Z,9.81
2024-01-24T18:03:00.986Z,9.87
2024-01-24T18:05:27.896Z,9.96
2024-01-24T18:07:56.680Z,10.00
2024-01-24T18:10:23.240Z,9.88
2024-01-24T18:12:49.904Z,9.79
2024-01-24T18:15:18.157Z,9.89
2024-01-24T18:17:44.641Z,9.82
2024-01-24T18:20:11.460Z,9.91
2024-01-24T18:22:37.954Z,9.77
2024-01-24T18:25:05.156Z,9.77
2024-01-24T18:27:31.989Z,9.86
2024-01-24T18:29:59.007Z,9.84
2024-01-24T18:32:25.505Z,9.83
2024-01-24T18:34:52.139Z,9.76
2024-01-24T18:37:18.835Z,9.75
2024-01-24T18:39:47.470Z,9.86
2024-01-24T18:42:14.053Z,9.79
2024-01-24T18:44:40.713Z,9.75
2024-01-24T18:47:07.568Z,9.77
2024-01-24T18:49:34.491Z,9.69
2024-01-24T18:52:01.487Z,9.75
2024-01-24T18:54:28.159Z,9.76
2024-01-24T18:56:54.867Z,9.83
2024-01-24T18:59:21.330Z,9.85
2024-01-24T19:01:49.158Z,9.82
2024-01-24T19:04:16.859Z,9.99
2024-01-24T19:06:43.922Z,9.89
2024-01-24T19:09:10.574Z,9.71
2024-01-24T19:11:37.508Z,9.61
2024-01-24T19:14:05.059Z,9.64
2024-01-24T19:16:32.132Z,9.83
2024-01-24T19:18:59.847Z,9.87
2024-01-24T19:21:26.413Z,9.83
2024-01-24T19:23:52.883Z,9.78
2024-01-24T19:26:19.646Z,9.81
2024-01-24T19:28:47.252Z,9.80
2024-01-24T19:31:13.926Z,9.68
2024-01-24T19:33:40.774Z,9.66
2024-01-24T19:36:07.606Z,9.54
2024-01-24T19:38:34.863Z,9.61
2024-01-24T19:41:01.478Z,9.64
2024-01-24T19:43:27.952Z,9.65
2024-01-24T19:45:54.627Z,9.80
2024-01-24T19:48:21.501Z,9.67
2024-01-24T19:50:48.100Z,9.70
2024-01-24T19:53:17.797Z,9.54
2024-01-24T19:55:50.331Z,9.53
2024-01-24T19:58:17.230Z,9.50
2024-01-24T20:00:43.812Z,9.46
2024-01-24T20:03:10.340Z,9.54
2024-01-24T20:05:38.064Z,9.46
2024-01-24T20:08:05.241Z,9.46
2024-01-24T20:10:31.730Z,9.51
2024-01-24T20:12:58.313Z,9.49
2024-01-24T20:15:26.114Z,9.56
2024-01-24T20:17:53.871Z,9.50
2024-01-24T20:20:20.651Z,9.56
2024-01-24T20:22:47.133Z,9.56
2024-01-24T20:25:14.025Z,9.56
2024-01-24T20:27:40.788Z,9.49
2024-01-24T20:30:08.449Z,9.50
2024-01-24T20:32:42.463Z,9.49
2024-01-24T20:35:12.137Z,9.43
2024-01-24T20:37:38.933Z,9.55
2024-01-24T20:40:06.365Z,9.46
2024-01-24T20:42:32.954Z,9.44
2024-01-24T20:44:59.741Z,9.38
2024-01-24T20:47:27.082Z,9.33
2024-01-24T20:49:55.663Z,9.21
2024-01-24T20:52:22.526Z,9.25
2024-01-24T20:54:49.279Z,9.30
2024-01-24T20:57:16.628Z,9.43
2024-01-24T20:59:43.262Z,9.44
2024-01-24T21:02:10.060Z,9.44
2024-01-24T21:04:37.294Z,9.35
2024-01-24T21:07:05.316Z,9.41
2024-01-24T21:09:33.898Z,9.54
2024-01-24T21:12:00.613Z,9.46
2024-01-24T21:14:27.081Z,9.42
2024-01-24T21:16:53.594Z,9.49
2024-01-24T21:19:25.002Z,9.44
2024-01-24T21:21:52.847Z,9.46
2024-01-24T21:24:19.573Z,9.51
2024-01-24T21:26:47.051Z,9.40
2024-01-24T21:29:13.837Z,9.45
2024-01-24T21:31:47.294Z,9.48
2024-01-24T21:34:14.300Z,9.54
2024-01-24T21:36:47.582Z,9.44
2024-01-24T21:39:15.319Z,9.43
2024-01-24T21:41:41.761Z,9.50
2024-01-24T21:44:08.277Z,9.37
2024-01-24T21:46:34.916Z,9.32
2024-01-24T21:49:01.569Z,9.40
2024-01-24T21:51:28.190Z,9.35
2024-01-24T21:53:54.686Z,9.34
2024-01-24T21:56:21.296Z,9.34
2024-01-24T21:58:49.218Z,9.25
2024-01-24T22:01:16.752Z,9.28
2024-01-24T22:03:43.702Z,9.19
2024-01-24T22:06:10.334Z,9.25
2024-01-24T22:08:37.105Z,9.36
2024-01-24T22:11:03.867Z,9.45
2024-01-24T22:13:30.317Z,9.56
2024-01-24T22:15:58.048Z,9.38
2024-01-24T22:18:30.182Z,9.38
2024-01-24T22:21:03.693Z,9.36
2024-01-24T22:23:30.125Z,9.33
2024-01-24T22:25:56.721Z,9.29
2024-01-24T22:28:23.239Z,9.28
2024-01-24T22:30:49.996Z,9.33
2024-01-24T22:33:17.244Z,9.19
2024-01-24T22:35:43.900Z,9.32
2024-01-24T22:38:10.350Z,9.30
2024-01-24T22:40:36.955Z,9.23
2024-01-24T22:43:03.738Z,9.37
2024-01-24T22:45:30.522Z,9.32
2024-01-24T22:47:59.675Z,9.36
2024-01-24T22:50:26.562Z,9.38
2024-01-24T22:52:53.502Z,9.21
2024-01-24T22:55:20.101Z,9.27
2024-01-24T22:57:50.318Z,9.26
2024-01-24T23:00:18.746Z,9.30
2024-01-24T23:02:49.471Z,9.28
2024-01-24T23:05:17.208Z,9.27
2024-01-24T23:07:44.244Z,9.13
2024-01-24T23:10:11.397Z,9.07
2024-01-24T23:12:38.604Z,9.20
2024-01-24T23:15:06.435Z,9.35
2024-01-24T23:17:33.117Z,9.29
2024-01-24T23:19:59.894Z,9.23
2024-01-24T23:22:27.826Z,9.37
2024-01-24T23:24:54.568Z,9.34
2024-01-24T23:27:21.292Z,9.25
2024-01-24T23:29:47.780Z,9.18
2024-01-24T23:32:14.474Z,9.18
2024-01-24T23:34:41.003Z,9.00
2024-01-24T23:37:07.765Z,9.01
2024-01-24T23:39:34.347Z,9.17
2024-01-24T23:42:01.316Z,9.01
2024-01-24T23:44:27.740Z,9.16
2024-01-24T23:46:54.355Z,9.05
2024-01-24T23:49:21.081Z,8.93
2024-01-24T23:51:48.074Z,9.06
2024-01-24T23:54:14.566Z,9.06
2024-01-24T23:56:41.183Z,9.00
2024-01-24T23:59:09.249Z,9.11
